createdAt,value
2023-02-16T00:01:57.316Z,11.07
2023-02-16T00:04:28.938Z,11.00
2023-02-16T00:06:57.820Z,11.80
2023-02-16T00:09:27.464Z,10.47
2023-02-16T00:12:13.421Z,12.63
2023-02-16T00:14:44.524Z,10.23
2023-02-16T00:17:14.361Z,11.17
2023-02-16T00:19:43.382Z,10.13
2023-02-16T00:22:12.484Z,12.77
2023-02-16T00:24:42.494Z,10.83
2023-02-16T00:27:14.910Z,11.50
2023-02-16T00:29:45.848Z,11.37
2023-02-16T00:32:16.493Z,12.80
2023-02-16T00:34:45.844Z,12.20
2023-02-16T00:37:16.055Z,11.10
2023-02-16T00:39:46.420Z,11.80
2023-02-16T00:42:19.856Z,10.67
2023-02-16T00:44:50.502Z,12.37
2023-02-16T00:47:22.824Z,12.63
2023-02-16T00:49:53.357Z,10.27
2023-02-16T00:52:35.425Z,13.13
2023-02-16T00:55:09.898Z,11.53
2023-02-16T00:57:42.275Z,11.13
2023-02-16T01:00:19.543Z,11.07
2023-02-16T01:02:49.959Z,12.33
2023-02-16T01:05:21.435Z,12.33
2023-02-16T01:08:07.382Z,11.80
2023-02-16T01:10:55.711Z,13.03
2023-02-16T01:13:24.845Z,11.87
2023-02-16T01:15:53.528Z,10.47
2023-02-16T01:18:22.504Z,12.63
2023-02-16T01:20:52.951Z,13.10
2023-02-16T01:23:22.653Z,11.50
2023-02-16T01:25:52.369Z,12.27
2023-02-16T01:28:22.912Z,11.53
2023-02-16T01:30:52.422Z,11.17
2023-02-16T01:33:21.371Z,11.30
2023-02-16T01:35:51.005Z,10.43
2023-02-16T01:38:21.686Z,11.10
2023-02-16T01:40:58.486Z,11.63
2023-02-16T01:43:31.697Z,11.87
2023-02-16T01:46:07.036Z,13.03
2023-02-16T01:48:36.144Z,10.90
2023-02-16T01:51:11.834Z,11.57
2023-02-16T01:53:47.176Z,10.80
2023-02-16T01:56:25.863Z,11.80
2023-02-16T01:59:00.023Z,11.40
2023-02-16T02:01:50.741Z,11.80
2023-02-16T02:04:45.531Z,10.60
2023-02-16T02:07:24.467Z,10.90
2023-02-16T02:10:02.368Z,10.23
2023-02-16T02:12:38.420Z,10.93
2023-02-16T02:15:09.197Z,11.07
2023-02-16T02:17:38.545Z,12.70
2023-02-16T02:20:17.394Z,11.80
2023-02-16T02:23:34.229Z,11.17
2023-02-16T02:26:40.101Z,10.63
2023-02-16T02:29:24.476Z,11.80
2023-02-16T02:32:04.233Z,12.43
2023-02-16T02:34:49.084Z,10.73
2023-02-16T02:37:25.173Z,11.60
2023-02-16T02:40:02.298Z,11.63
2023-02-16T02:42:35.145Z,10.30
2023-02-16T02:45:13.001Z,10.90
2023-02-16T02:47:44.312Z,10.90
2023-02-16T02:51:07.959Z,12.60
2023-02-16T02:53:42.713Z,10.20
2023-02-16T02:56:30.751Z,11.07
2023-02-16T02:59:21.175Z,11.97
2023-02-16T03:01:54.863Z,10.13
2023-02-16T03:04:27.102Z,12.13
2023-02-16T03:06:58.835Z,12.13
2023-02-16T03:09:27.835Z,11.50
2023-02-16T03:12:15.498Z,11.00
2023-02-16T03:14:47.897Z,11.87
2023-02-16T03:17:39.574Z,10.47
2023-02-16T03:20:32.818Z,12.97
2023-02-16T03:23:21.765Z,12.37
2023-02-16T03:26:09.005Z,12.90
2023-02-16T03:28:59.774Z,11.10
2023-02-16T03:31:32.723Z,10.40
2023-02-16T03:34:04.185Z,11.60
2023-02-16T03:36:35.711Z,10.93
2023-02-16T03:39:04.628Z,11.00
2023-02-16T03:41:34.468Z,10.83
2023-02-16T03:44:03.901Z,11.50
2023-02-16T03:46:32.685Z,11.87
2023-02-16T03:49:02.705Z,11.30
2023-02-16T03:51:33.556Z,11.50
2023-02-16T03:54:02.468Z,9.83
2023-02-16T03:56:30.795Z,11.30
2023-02-16T03:59:00.122Z,10.73
2023-02-16T04:01:28.453Z,11.70
2023-02-16T04:03:56.768Z,10.80
2023-02-16T04:06:26.706Z,10.20
2023-02-16T04:08:54.972Z,9.87
2023-02-16T04:11:41.172Z,10.23
2023-02-16T04:14:09.448Z,9.83
2023-02-16T04:16:38.415Z,10.40
2023-02-16T04:19:11.331Z,9.53
2023-02-16T04:21:42.925Z,11.10
2023-02-16T04:24:11.541Z,10.67
2023-02-16T04:26:40.093Z,11.23
2023-02-16T04:29:11.220Z,10.40
2023-02-16T04:31:39.971Z,9.17
2023-02-16T04:34:08.908Z,10.93
2023-02-16T04:36:37.215Z,10.80
2023-02-16T04:39:07.109Z,10.43
2023-02-16T04:41:36.773Z,9.80
2023-02-16T04:44:05.119Z,11.60
2023-02-16T04:46:36.096Z,10.97
2023-02-16T04:49:05.270Z,11.57
2023-02-16T04:51:34.345Z,10.40
2023-02-16T04:54:02.592Z,11.00
2023-02-16T04:56:32.595Z,11.17
2023-02-16T04:59:00.763Z,10.93
2023-02-16T05:01:29.355Z,9.60
2023-02-16T05:03:58.645Z,11.80
2023-02-16T05:06:27.041Z,10.30
2023-02-16T05:08:56.206Z,11.27
2023-02-16T05:11:41.738Z,11.57
2023-02-16T05:14:37.868Z,10.33
2023-02-16T05:17:06.682Z,11.00
2023-02-16T05:19:35.085Z,12.00
2023-02-16T05:22:03.901Z,11.40
2023-02-16T05:24:33.840Z,11.97
2023-02-16T05:27:02.562Z,12.13
2023-02-16T05:29:33.489Z,13.40
2023-02-16T05:32:04.561Z,13.00
2023-02-16T05:34:34.420Z,15.17
2023-02-16T05:37:02.714Z,17.50
2023-02-16T05:39:31.086Z,16.60
2023-02-16T05:42:00.101Z,18.53
2023-02-16T05:44:28.633Z,16.97
2023-02-16T05:46:58.233Z,14.50
2023-02-16T05:49:26.649Z,16.43
2023-02-16T05:51:54.944Z,17.17
2023-02-16T05:54:24.113Z,12.80
2023-02-16T05:56:54.262Z,11.70
2023-02-16T05:59:22.860Z,12.80
2023-02-16T06:01:52.433Z,12.23
2023-02-16T06:04:23.235Z,12.50
2023-02-16T06:06:51.881Z,14.63
2023-02-16T06:09:19.935Z,12.20
2023-02-16T06:11:48.267Z,11.90
2023-02-16T06:14:20.551Z,12.10
2023-02-16T06:16:51.634Z,12.30
2023-02-16T06:19:21.671Z,12.50
2023-02-16T06:21:50.160Z,11.13
2023-02-16T06:24:18.757Z,13.60
2023-02-16T06:26:46.973Z,12.50
2023-02-16T06:29:15.241Z,13.17
2023-02-16T06:31:43.448Z,13.93
2023-02-16T06:34:11.981Z,13.33
2023-02-16T06:36:42.737Z,14.80
2023-02-16T06:39:11.327Z,16.20
2023-02-16T06:41:40.421Z,16.37
2023-02-16T06:44:12.392Z,13.10
2023-02-16T06:46:41.178Z,14.93
2023-02-16T06:49:12.416Z,15.50
2023-02-16T06:51:42.989Z,15.20
2023-02-16T06:54:11.470Z,14.47
2023-02-16T06:56:39.741Z,14.77
2023-02-16T06:59:11.392Z,17.77
2023-02-16T07:01:42.022Z,17.30
2023-02-16T07:04:14.003Z,15.67
2023-02-16T07:06:45.309Z,16.60
2023-02-16T07:09:13.529Z,16.57
2023-02-16T07:11:42.037Z,14.90
2023-02-16T07:14:12.817Z,14.43
2023-02-16T07:16:41.414Z,13.33
2023-02-16T07:19:10.393Z,15.37
2023-02-16T07:21:39.050Z,13.77
2023-02-16T07:24:09.892Z,14.50
2023-02-16T07:26:39.324Z,15.80
2023-02-16T07:29:07.829Z,14.67
2023-02-16T07:31:36.293Z,13.77
2023-02-16T07:34:04.973Z,14.00
2023-02-16T07:36:33.597Z,14.10
2023-02-16T07:39:02.396Z,12.00
2023-02-16T07:41:34.376Z,15.13
2023-02-16T07:44:09.678Z,15.30
2023-02-16T07:46:38.170Z,13.00
2023-02-16T07:49:07.630Z,13.07
2023-02-16T07:51:37.618Z,14.67
2023-02-16T07:54:06.559Z,14.93
2023-02-16T07:56:37.059Z,14.77
2023-02-16T07:59:05.894Z,13.97
2023-02-16T08:01:35.800Z,15.13
2023-02-16T08:04:06.563Z,17.47
2023-02-16T08:06:36.577Z,17.60
2023-02-16T08:09:06.056Z,16.07
2023-02-16T08:11:36.046Z,17.80
2023-02-16T08:14:04.659Z,16.97
2023-02-16T08:16:33.823Z,20.03
2023-02-16T08:19:04.689Z,17.40
2023-02-16T08:21:35.171Z,17.00
2023-02-16T08:24:06.314Z,16.50
2023-02-16T08:26:39.681Z,14.57
2023-02-16T08:29:10.247Z,15.50
2023-02-16T08:31:39.294Z,15.70
2023-02-16T08:34:08.088Z,15.33
2023-02-16T08:36:40.336Z,15.07
2023-02-16T08:39:14.871Z,14.50
2023-02-16T08:41:46.193Z,15.23
2023-02-16T08:44:16.540Z,15.20
2023-02-16T08:46:47.560Z,14.83
2023-02-16T08:49:18.735Z,14.80
2023-02-16T08:51:49.067Z,15.60
2023-02-16T08:54:20.178Z,15.70
2023-02-16T08:56:50.994Z,16.73
2023-02-16T08:59:21.702Z,17.70
2023-02-16T09:01:50.910Z,17.27
2023-02-16T09:04:20.451Z,17.30
2023-02-16T09:06:50.520Z,16.13
2023-02-16T09:09:19.410Z,15.83
2023-02-16T09:11:48.802Z,16.77
2023-02-16T09:14:22.963Z,16.17
2023-02-16T09:16:51.565Z,15.93
2023-02-16T09:19:22.416Z,16.27
2023-02-16T09:21:52.133Z,15.70
2023-02-16T09:24:22.161Z,17.73
2023-02-16T09:26:52.230Z,17.37
2023-02-16T09:29:22.000Z,17.73
2023-02-16T09:31:50.491Z,15.83
2023-02-16T09:34:21.159Z,16.37
2023-02-16T09:36:50.504Z,15.90
2023-02-16T09:39:19.172Z,14.83
2023-02-16T09:42:12.736Z,16.00
2023-02-16T09:44:53.573Z,15.80
2023-02-16T09:47:26.326Z,14.60
2023-02-16T09:49:56.979Z,16.20
2023-02-16T09:52:32.083Z,16.30
2023-02-16T09:55:04.284Z,14.47
2023-02-16T09:57:56.091Z,15.63
2023-02-16T10:00:33.058Z,15.50
2023-02-16T10:03:14.975Z,15.47
2023-02-16T10:05:50.746Z,17.10
2023-02-16T10:08:27.674Z,16.40
2023-02-16T10:11:05.819Z,15.47
2023-02-16T10:13:40.695Z,16.17
2023-02-16T10:16:16.997Z,15.47
2023-02-16T10:18:51.283Z,15.47
2023-02-16T10:21:26.025Z,15.80
2023-02-16T10:23:58.939Z,14.50
2023-02-16T10:26:33.598Z,15.83
2023-02-16T10:29:10.106Z,16.20
2023-02-16T10:31:42.786Z,16.30
2023-02-16T10:34:36.968Z,14.73
2023-02-16T10:37:25.228Z,15.80
2023-02-16T10:40:03.165Z,15.80
2023-02-16T10:42:37.050Z,14.47
2023-02-16T10:45:16.971Z,15.00
2023-02-16T10:47:48.470Z,14.23
2023-02-16T10:50:25.535Z,14.67
2023-02-16T10:52:59.033Z,14.00
2023-02-16T10:55:27.738Z,13.70
2023-02-16T10:57:59.858Z,14.60
2023-02-16T11:00:45.983Z,14.00
2023-02-16T11:03:16.485Z,11.77
2023-02-16T11:05:45.017Z,12.70
2023-02-16T11:08:14.377Z,11.40
2023-02-16T11:10:48.806Z,11.40
2023-02-16T11:13:40.129Z,10.57
2023-02-16T11:16:20.004Z,10.97
2023-02-16T11:18:57.411Z,11.03
2023-02-16T11:21:47.495Z,12.90
2023-02-16T11:24:27.160Z,11.03
2023-02-16T11:27:08.633Z,11.33
2023-02-16T11:29:38.913Z,10.60
2023-02-16T11:32:09.133Z,10.70
2023-02-16T11:34:45.756Z,10.93
2023-02-16T11:37:29.218Z,11.23
2023-02-16T11:40:00.283Z,11.73
2023-02-16T11:42:34.921Z,10.57
2023-02-16T11:45:06.214Z,9.80
2023-02-16T11:47:37.881Z,9.83
2023-02-16T11:50:26.009Z,10.70
2023-02-16T11:52:55.778Z,13.83
2023-02-16T11:55:32.984Z,10.47
2023-02-16T11:58:21.554Z,10.70
2023-02-16T12:01:01.935Z,11.50
2023-02-16T12:04:00.563Z,10.97
2023-02-16T12:06:47.313Z,9.90
2023-02-16T12:09:27.289Z,10.30
2023-02-16T12:12:05.675Z,9.63
2023-02-16T12:14:47.408Z,9.70
2023-02-16T12:17:34.913Z,10.10
2023-02-16T12:20:14.552Z,9.47
2023-02-16T12:22:49.281Z,9.53
2023-02-16T12:25:31.343Z,10.63
2023-02-16T12:28:13.412Z,10.07
2023-02-16T12:30:53.898Z,9.83
2023-02-16T12:33:36.470Z,10.93
2023-02-16T12:36:24.499Z,11.07
2023-02-16T12:39:08.728Z,10.03
2023-02-16T12:41:47.081Z,10.87
2023-02-16T12:44:19.040Z,9.07
2023-02-16T12:46:49.923Z,10.47
2023-02-16T12:49:31.948Z,10.33
2023-02-16T12:52:08.758Z,10.60
2023-02-16T12:54:45.562Z,10.20
2023-02-16T12:57:17.627Z,11.00
2023-02-16T12:59:50.992Z,9.80
2023-02-16T13:02:26.546Z,9.30
2023-02-16T13:05:03.090Z,8.03
2023-02-16T13:07:39.355Z,9.13
2023-02-16T13:10:19.482Z,7.90
2023-02-16T13:12:53.236Z,8.37
2023-02-16T13:15:27.348Z,11.87
2023-02-16T13:17:59.304Z,8.57
2023-02-16T13:24:07.190Z,9.50
2023-02-16T13:26:57.716Z,8.20
2023-02-16T13:29:47.796Z,9.53
2023-02-16T13:32:46.672Z,7.40
2023-02-16T13:35:31.388Z,9.00
2023-02-16T13:38:14.541Z,8.97
2023-02-16T13:41:09.746Z,8.67
2023-02-16T13:43:45.286Z,8.40
2023-02-16T13:46:20.879Z,8.63
2023-02-16T13:48:53.207Z,8.63
2023-02-16T13:51:24.152Z,8.33
2023-02-16T13:53:56.052Z,8.40
2023-02-16T13:56:36.447Z,8.13
2023-02-16T13:59:44.847Z,8.77
2023-02-16T14:02:35.162Z,12.40
2023-02-16T14:05:11.917Z,13.97
2023-02-16T14:07:40.609Z,14.10
2023-02-16T14:10:15.398Z,12.07
2023-02-16T14:12:44.461Z,7.80
2023-02-16T14:15:20.932Z,8.80
2023-02-16T14:17:49.727Z,10.50
2023-02-16T14:20:31.563Z,11.73
2023-02-16T14:23:01.071Z,10.83
2023-02-16T14:25:36.521Z,8.83
2023-02-16T14:28:07.410Z,10.23
2023-02-16T14:30:38.623Z,9.40
2023-02-16T14:33:18.669Z,9.40
2023-02-16T14:36:08.239Z,9.80
2023-02-16T14:38:38.363Z,8.00
2023-02-16T14:41:14.138Z,9.63
2023-02-16T14:43:45.652Z,9.17
2023-02-16T14:46:39.700Z,8.20
2023-02-16T14:49:42.841Z,9.83
2023-02-16T14:52:50.035Z,8.83
2023-02-16T14:55:46.202Z,8.20
2023-02-16T14:58:27.924Z,9.17
2023-02-16T15:01:05.181Z,8.20
2023-02-16T15:03:46.685Z,9.80
2023-02-16T15:06:32.035Z,9.60
2023-02-16T15:09:06.842Z,8.87
2023-02-16T15:11:58.654Z,9.00
2023-02-16T15:14:28.017Z,9.40
2023-02-16T15:16:59.230Z,12.57
2023-02-16T15:19:31.270Z,10.90
2023-02-16T15:22:10.739Z,12.43
2023-02-16T15:24:42.480Z,12.47
2023-02-16T15:27:23.492Z,11.60
2023-02-16T15:30:06.344Z,12.43
2023-02-16T15:32:35.521Z,12.23
2023-02-16T15:35:12.350Z,15.87
2023-02-16T15:37:41.563Z,14.90
2023-02-16T15:40:25.372Z,15.83
2023-02-16T15:42:56.281Z,13.80
2023-02-16T15:45:29.942Z,11.30
2023-02-16T15:48:23.984Z,11.03
2023-02-16T15:50:55.005Z,11.20
2023-02-16T15:53:36.149Z,9.77
2023-02-16T15:56:21.934Z,12.30
2023-02-16T15:58:50.682Z,12.13
2023-02-16T16:01:31.505Z,11.43
2023-02-16T16:04:03.521Z,13.10
2023-02-16T16:06:38.000Z,11.60
2023-02-16T16:09:08.668Z,11.97
2023-02-16T16:11:39.817Z,11.47
2023-02-16T16:14:08.711Z,8.27
2023-02-16T16:16:37.429Z,7.47
2023-02-16T16:19:16.046Z,7.40
2023-02-16T16:21:54.364Z,8.00
2023-02-16T16:24:34.049Z,7.07
2023-02-16T16:27:07.687Z,7.30
2023-02-16T16:29:41.254Z,6.80
2023-02-16T16:32:19.903Z,6.90
2023-02-16T16:34:48.708Z,7.13
2023-02-16T16:37:26.928Z,7.80
2023-02-16T16:40:04.229Z,7.03
2023-02-16T16:42:39.126Z,6.70
2023-02-16T16:45:34.781Z,7.20
2023-02-16T16:48:10.583Z,7.43
2023-02-16T16:50:40.606Z,7.60
2023-02-16T16:53:42.230Z,6.90
2023-02-16T16:56:12.645Z,8.57
2023-02-16T16:58:46.021Z,7.37
2023-02-16T17:01:14.866Z,10.87
2023-02-16T17:03:44.734Z,10.50
2023-02-16T17:06:14.674Z,10.40
2023-02-16T17:08:43.346Z,10.83
2023-02-16T17:11:22.623Z,8.97
2023-02-16T17:13:54.715Z,8.90
2023-02-16T17:16:26.931Z,9.83
2023-02-16T17:18:57.021Z,10.60
2023-02-16T17:21:25.759Z,10.03
2023-02-16T17:23:55.159Z,10.13
2023-02-16T17:26:24.664Z,12.10
2023-02-16T17:28:54.810Z,11.17
2023-02-16T17:31:25.721Z,12.67
2023-02-16T17:33:54.131Z,9.57
2023-02-16T17:36:25.545Z,9.03
2023-02-16T17:38:54.731Z,10.07
2023-02-16T17:41:26.041Z,8.53
2023-02-16T17:43:56.799Z,10.83
2023-02-16T17:46:27.089Z,11.43
2023-02-16T17:48:56.249Z,9.80
2023-02-16T17:51:26.642Z,10.10
2023-02-16T17:53:56.123Z,10.57
2023-02-16T17:56:26.549Z,11.27
2023-02-16T17:58:56.532Z,8.07
2023-02-16T18:01:25.505Z,12.53
2023-02-16T18:03:54.352Z,9.60
2023-02-16T18:06:28.170Z,9.50
2023-02-16T18:08:57.738Z,10.57
2023-02-16T18:11:27.918Z,9.37
2023-02-16T18:13:58.322Z,9.77
2023-02-16T18:16:28.850Z,9.50
2023-02-16T18:18:58.500Z,9.53
2023-02-16T18:21:27.300Z,8.90
2023-02-16T18:23:55.676Z,8.60
2023-02-16T18:26:24.734Z,9.70
2023-02-16T18:28:53.213Z,9.57
2023-02-16T18:31:23.766Z,7.83
2023-02-16T18:33:52.671Z,6.30
2023-02-16T18:36:21.689Z,6.87
2023-02-16T18:38:51.513Z,7.70
2023-02-16T18:41:20.585Z,8.07
2023-02-16T18:43:49.440Z,9.00
2023-02-16T18:46:18.607Z,8.30
2023-02-16T18:48:49.043Z,9.50
2023-02-16T18:51:18.142Z,10.63
2023-02-16T18:53:47.241Z,9.00
2023-02-16T18:56:17.233Z,8.33
2023-02-16T18:58:46.505Z,7.13
2023-02-16T19:01:17.515Z,7.37
2023-02-16T19:03:46.663Z,5.40
2023-02-16T19:06:18.727Z,6.03
2023-02-16T19:08:48.832Z,7.00
2023-02-16T19:11:18.689Z,7.57
2023-02-16T19:13:47.726Z,7.50
2023-02-16T19:16:18.332Z,7.83
2023-02-16T19:18:50.640Z,20.80
2023-02-16T19:21:21.534Z,10.40
2023-02-16T19:23:49.989Z,10.20
2023-02-16T19:26:19.499Z,9.30
2023-02-16T19:28:48.164Z,9.10
2023-02-16T19:31:19.953Z,7.70
2023-02-16T19:33:48.565Z,8.50
2023-02-16T19:36:18.082Z,7.50
2023-02-16T19:38:50.742Z,8.87
2023-02-16T19:41:21.065Z,7.03
2023-02-16T19:43:49.736Z,7.37
2023-02-16T19:46:18.443Z,6.50
2023-02-16T19:48:47.121Z,8.23
2023-02-16T19:51:17.240Z,8.30
2023-02-16T19:53:47.709Z,9.03
2023-02-16T19:56:19.202Z,7.63
2023-02-16T19:58:48.100Z,7.87
2023-02-16T20:01:18.321Z,10.50
2023-02-16T20:03:48.427Z,9.17
2023-02-16T20:06:18.858Z,10.00
2023-02-16T20:08:51.602Z,8.50
2023-02-16T20:11:21.950Z,9.17
2023-02-16T20:13:51.272Z,8.13
2023-02-16T20:16:21.962Z,10.60
2023-02-16T20:18:50.789Z,10.47
2023-02-16T20:21:21.527Z,11.67
2023-02-16T20:23:54.769Z,9.20
2023-02-16T20:26:26.105Z,8.30
2023-02-16T20:28:54.934Z,9.00
2023-02-16T20:31:26.763Z,9.47
2023-02-16T20:33:55.350Z,9.23
2023-02-16T20:36:24.841Z,7.33
2023-02-16T20:38:55.717Z,6.77
2023-02-16T20:41:27.126Z,6.60
2023-02-16T20:43:55.770Z,7.07
2023-02-16T20:46:25.099Z,6.80
2023-02-16T20:48:54.046Z,6.90
2023-02-16T20:51:22.885Z,7.70
2023-02-16T20:53:51.504Z,7.97
2023-02-16T20:56:22.971Z,7.40
2023-02-16T20:58:53.694Z,6.57
2023-02-16T21:01:24.923Z,6.90
2023-02-16T21:03:55.403Z,6.40
2023-02-16T21:06:25.878Z,6.87
2023-02-16T21:08:57.047Z,6.40
2023-02-16T21:11:27.155Z,6.20
2023-02-16T21:13:57.603Z,5.57
2023-02-16T21:16:27.698Z,4.53
2023-02-16T21:18:56.171Z,7.90
2023-02-16T21:21:26.108Z,7.53
2023-02-16T21:23:56.360Z,8.43
2023-02-16T21:26:27.324Z,8.53
2023-02-16T21:28:56.163Z,6.40
2023-02-16T21:31:26.950Z,6.63
2023-02-16T21:33:57.218Z,6.80
2023-02-16T21:36:27.032Z,6.00
2023-02-16T21:38:56.201Z,5.93
2023-02-16T21:41:28.762Z,5.60
2023-02-16T21:44:00.735Z,6.13
2023-02-16T21:46:30.610Z,5.10
2023-02-16T21:49:00.734Z,3.77
2023-02-16T21:51:32.069Z,5.80
2023-02-16T21:54:01.351Z,5.90
2023-02-16T21:56:34.967Z,5.53
2023-02-16T21:59:05.082Z,5.67
2023-02-16T22:01:40.189Z,5.90
2023-02-16T22:04:09.128Z,6.30
2023-02-16T22:06:41.338Z,4.60
2023-02-16T22:09:12.566Z,5.07
2023-02-16T22:11:43.142Z,5.60
2023-02-16T22:14:11.577Z,5.50
2023-02-16T22:16:40.447Z,6.33
2023-02-16T22:19:10.749Z,4.60
2023-02-16T22:21:40.652Z,5.73
2023-02-16T22:24:12.058Z,5.23
2023-02-16T22:26:40.564Z,5.97
2023-02-16T22:29:11.007Z,5.03
2023-02-16T22:31:41.994Z,5.00
2023-02-16T22:34:14.369Z,4.70
2023-02-16T22:36:43.850Z,3.67
2023-02-16T22:39:15.789Z,3.93
2023-02-16T22:41:44.319Z,4.33
2023-02-16T22:44:15.908Z,4.30
2023-02-16T22:46:45.053Z,3.83
2023-02-16T22:49:13.624Z,4.33
2023-02-16T22:51:43.027Z,4.47
2023-02-16T22:54:14.606Z,4.23
2023-02-16T22:56:43.433Z,4.70
2023-02-16T22:59:14.422Z,4.07
2023-02-16T23:01:43.654Z,4.33
2023-02-16T23:04:15.426Z,5.23
2023-02-16T23:06:48.273Z,3.53
2023-02-16T23:09:19.665Z,4.40
2023-02-16T23:11:48.946Z,5.40
2023-02-16T23:14:19.398Z,7.00
2023-02-16T23:16:49.989Z,4.70
2023-02-16T23:19:20.284Z,5.13
2023-02-16T23:21:49.669Z,6.27
2023-02-16T23:24:19.813Z,8.80
2023-02-16T23:26:48.589Z,4.73
2023-02-16T23:29:18.813Z,7.73
2023-02-16T23:31:48.244Z,5.50
2023-02-16T23:34:18.088Z,5.67
2023-02-16T23:36:48.137Z,5.87
2023-02-16T23:39:20.096Z,5.47
2023-02-16T23:41:48.439Z,5.17
2023-02-16T23:44:18.722Z,5.90
2023-02-16T23:46:47.251Z,5.00
2023-02-16T23:49:15.575Z,6.07
2023-02-16T23:51:45.093Z,4.20
2023-02-16T23:54:13.908Z,5.17
2023-02-16T23:56:42.671Z,5.27
2023-02-16T23:59:11.155Z,5.37
